sensor_id;sensor_type;location;lat;lon;timestamp;P1;durP1;ratioP1;P2;durP2;ratioP2
18338;SDS011;9295;44.484;11.240;2022-11-12T00:00:29;135.13;;;58.70;;
18338;SDS011;9295;44.484;11.240;2022-11-12T00:03:16;147.27;;;63.87;;
18338;SDS011;9295;44.484;11.240;2022-11-12T00:06:03;137.57;;;62.43;;
18338;SDS011;9295;44.484;11.240;2022-11-12T00:08:50;144.27;;;64.33;;
18338;SDS011;9295;44.484;11.240;2022-11-12T00:11:37;135.27;;;60.17;;
18338;SDS011;9295;44.484;11.240;2022-11-12T00:14:26;129.20;;;55.30;;
18338;SDS011;9295;44.484;11.240;2022-11-12T00:17:13;135.57;;;60.37;;
18338;SDS011;9295;44.484;11.240;2022-11-12T00:19:59;131.53;;;58.33;;
18338;SDS011;9295;44.484;11.240;2022-11-12T00:22:47;117.37;;;55.27;;
18338;SDS011;9295;44.484;11.240;2022-11-12T00:25:33;127.63;;;57.20;;
18338;SDS011;9295;44.484;11.240;2022-11-12T00:28:20;127.53;;;55.83;;
18338;SDS011;9295;44.484;11.240;2022-11-12T00:31:10;116.73;;;56.07;;
18338;SDS011;9295;44.484;11.240;2022-11-12T00:33:57;117.90;;;57.60;;
18338;SDS011;9295;44.484;11.240;2022-11-12T00:36:44;117.90;;;55.30;;
18338;SDS011;9295;44.484;11.240;2022-11-12T00:39:31;131.57;;;58.07;;
18338;SDS011;9295;44.484;11.240;2022-11-12T00:42:18;107.73;;;53.10;;
18338;SDS011;9295;44.484;11.240;2022-11-12T00:45:06;99.80;;;49.93;;
18338;SDS011;9295;44.484;11.240;2022-11-12T00:47:55;106.63;;;52.00;;
18338;SDS011;9295;44.484;11.240;2022-11-12T00:50:42;95.53;;;48.30;;
18338;SDS011;9295;44.484;11.240;2022-11-12T00:53:29;101.57;;;51.67;;
18338;SDS011;9295;44.484;11.240;2022-11-12T00:56:16;103.57;;;49.43;;
18338;SDS011;9295;44.484;11.240;2022-11-12T00:59:03;100.10;;;48.60;;
18338;SDS011;9295;44.484;11.240;2022-11-12T01:01:50;97.63;;;50.40;;
18338;SDS011;9295;44.484;11.240;2022-11-12T01:04:38;104.10;;;49.00;;
18338;SDS011;9295;44.484;11.240;2022-11-12T01:07:26;100.73;;;50.07;;
18338;SDS011;9295;44.484;11.240;2022-11-12T01:10:13;86.80;;;47.00;;
18338;SDS011;9295;44.484;11.240;2022-11-12T01:13:00;83.07;;;43.63;;
18338;SDS011;9295;44.484;11.240;2022-11-12T01:15:47;85.40;;;43.70;;
18338;SDS011;9295;44.484;11.240;2022-11-12T01:18:34;88.10;;;44.97;;
18338;SDS011;9295;44.484;11.240;2022-11-12T01:21:23;83.03;;;42.53;;
18338;SDS011;9295;44.484;11.240;2022-11-12T01:24:10;85.53;;;43.47;;
18338;SDS011;9295;44.484;11.240;2022-11-12T01:26:57;78.67;;;43.40;;
18338;SDS011;9295;44.484;11.240;2022-11-12T01:29:44;89.47;;;44.73;;
18338;SDS011;9295;44.484;11.240;2022-11-12T01:32:33;81.37;;;42.73;;
18338;SDS011;9295;44.484;11.240;2022-11-12T01:35:21;91.77;;;43.90;;
18338;SDS011;9295;44.484;11.240;2022-11-12T01:38:10;79.87;;;42.20;;
18338;SDS011;9295;44.484;11.240;2022-11-12T01:40:57;79.17;;;41.43;;
18338;SDS011;9295;44.484;11.240;2022-11-12T01:43:44;78.13;;;40.47;;
18338;SDS011;9295;44.484;11.240;2022-11-12T01:46:31;71.47;;;39.20;;
18338;SDS011;9295;44.484;11.240;2022-11-12T01:49:20;81.90;;;39.93;;
18338;SDS011;9295;44.484;11.240;2022-11-12T01:52:12;69.33;;;38.30;;
18338;SDS011;9295;44.484;11.240;2022-11-12T01:55:04;71.87;;;38.20;;
18338;SDS011;9295;44.484;11.240;2022-11-12T01:57:56;61.80;;;32.93;;
18338;SDS011;9295;44.484;11.240;2022-11-12T02:00:50;74.83;;;36.70;;
18338;SDS011;9295;44.484;11.240;2022-11-12T02:03:37;80.90;;;37.60;;
18338;SDS011;9295;44.484;11.240;2022-11-12T02:06:25;70.30;;;36.43;;
18338;SDS011;9295;44.484;11.240;2022-11-12T02:09:11;73.60;;;36.30;;
18338;SDS011;9295;44.484;11.240;2022-11-12T02:12:00;65.20;;;36.40;;
18338;SDS011;9295;44.484;11.240;2022-11-12T02:14:47;67.27;;;34.67;;
18338;SDS011;9295;44.484;11.240;2022-11-12T02:17:33;66.53;;;33.57;;
18338;SDS011;9295;44.484;11.240;2022-11-12T02:20:19;67.10;;;34.20;;
18338;SDS011;9295;44.484;11.240;2022-11-12T02:23:08;65.23;;;33.70;;
18338;SDS011;9295;44.484;11.240;2022-11-12T02:25:55;73.70;;;35.27;;
18338;SDS011;9295;44.484;11.240;2022-11-12T02:28:42;59.27;;;33.07;;
18338;SDS011;9295;44.484;11.240;2022-11-12T02:31:29;61.00;;;34.67;;
18338;SDS011;9295;44.484;11.240;2022-11-12T02:34:16;60.57;;;34.90;;
18338;SDS011;9295;44.484;11.240;2022-11-12T02:37:03;65.10;;;33.90;;
18338;SDS011;9295;44.484;11.240;2022-11-12T02:39:51;64.73;;;34.10;;
18338;SDS011;9295;44.484;11.240;2022-11-12T02:42:38;66.97;;;33.90;;
18338;SDS011;9295;44.484;11.240;2022-11-12T02:45:26;69.93;;;35.57;;
18338;SDS011;9295;44.484;11.240;2022-11-12T02:48:14;57.60;;;30.80;;
18338;SDS011;9295;44.484;11.240;2022-11-12T02:51:03;62.60;;;33.87;;
18338;SDS011;9295;44.484;11.240;2022-11-12T02:53:50;60.07;;;32.80;;
18338;SDS011;9295;44.484;11.240;2022-11-12T02:56:39;59.33;;;30.57;;
18338;SDS011;9295;44.484;11.240;2022-11-12T02:59:25;60.17;;;33.60;;
18338;SDS011;9295;44.484;11.240;2022-11-12T03:02:12;51.40;;;29.00;;
18338;SDS011;9295;44.484;11.240;2022-11-12T03:04:59;65.60;;;32.03;;
18338;SDS011;9295;44.484;11.240;2022-11-12T03:07:46;56.03;;;32.27;;
18338;SDS011;9295;44.484;11.240;2022-11-12T03:10:35;63.37;;;32.17;;
18338;SDS011;9295;44.484;11.240;2022-11-12T03:13:24;64.23;;;30.73;;
18338;SDS011;9295;44.484;11.240;2022-11-12T03:16:11;58.77;;;30.90;;
18338;SDS011;9295;44.484;11.240;2022-11-12T03:18:58;61.50;;;31.07;;
18338;SDS011;9295;44.484;11.240;2022-11-12T03:21:45;50.40;;;28.10;;
18338;SDS011;9295;44.484;11.240;2022-11-12T03:24:32;52.80;;;27.50;;
18338;SDS011;9295;44.484;11.240;2022-11-12T03:27:19;54.70;;;26.57;;
18338;SDS011;9295;44.484;11.240;2022-11-12T03:30:07;52.97;;;27.87;;
18338;SDS011;9295;44.484;11.240;2022-11-12T03:32:55;54.80;;;28.37;;
18338;SDS011;9295;44.484;11.240;2022-11-12T03:35:42;54.47;;;27.63;;
18338;SDS011;9295;44.484;11.240;2022-11-12T03:38:29;49.60;;;26.73;;
18338;SDS011;9295;44.484;11.240;2022-11-12T03:41:16;51.83;;;27.53;;
18338;SDS011;9295;44.484;11.240;2022-11-12T03:44:04;53.97;;;27.00;;
18338;SDS011;9295;44.484;11.240;2022-11-12T03:46:52;54.53;;;28.67;;
18338;SDS011;9295;44.484;11.240;2022-11-12T03:49:38;52.57;;;28.03;;
18338;SDS011;9295;44.484;11.240;2022-11-12T03:52:25;48.57;;;26.40;;
18338;SDS011;9295;44.484;11.240;2022-11-12T03:55:13;50.20;;;26.47;;
18338;SDS011;9295;44.484;11.240;2022-11-12T03:58:01;47.30;;;26.07;;
18338;SDS011;9295;44.484;11.240;2022-11-12T04:00:49;49.47;;;25.40;;
18338;SDS011;9295;44.484;11.240;2022-11-12T04:03:37;51.63;;;28.57;;
18338;SDS011;9295;44.484;11.240;2022-11-12T04:06:24;48.30;;;25.90;;
18338;SDS011;9295;44.484;11.240;2022-11-12T04:09:28;46.50;;;26.07;;
18338;SDS011;9295;44.484;11.240;2022-11-12T04:12:15;61.47;;;29.00;;
18338;SDS011;9295;44.484;11.240;2022-11-12T04:15:19;52.00;;;27.10;;
18338;SDS011;9295;44.484;11.240;2022-11-12T04:18:06;52.57;;;27.83;;
18338;SDS011;9295;44.484;11.240;2022-11-12T04:21:13;47.37;;;24.77;;
18338;SDS011;9295;44.484;11.240;2022-11-12T04:24:24;50.87;;;27.20;;
18338;SDS011;9295;44.484;11.240;2022-11-12T04:27:30;53.40;;;28.70;;
18338;SDS011;9295;44.484;11.240;2022-11-12T04:30:19;52.60;;;27.73;;
18338;SDS011;9295;44.484;11.240;2022-11-12T04:33:05;53.60;;;29.43;;
18338;SDS011;9295;44.484;11.240;2022-11-12T04:35:52;50.17;;;26.87;;
18338;SDS011;9295;44.484;11.240;2022-11-12T04:38:40;50.37;;;25.67;;
18338;SDS011;9295;44.484;11.240;2022-11-12T04:41:26;56.33;;;27.47;;
18338;SDS011;9295;44.484;11.240;2022-11-12T04:44:31;57.50;;;27.83;;
18338;SDS011;9295;44.484;11.240;2022-11-12T04:47:36;50.50;;;25.97;;
18338;SDS011;9295;44.484;11.240;2022-11-12T04:50:24;49.73;;;26.60;;
18338;SDS011;9295;44.484;11.240;2022-11-12T04:53:11;43.47;;;24.97;;
18338;SDS011;9295;44.484;11.240;2022-11-12T04:56:00;44.80;;;25.27;;
18338;SDS011;9295;44.484;11.240;2022-11-12T04:58:47;48.13;;;24.57;;
18338;SDS011;9295;44.484;11.240;2022-11-12T05:01:34;47.00;;;24.13;;
18338;SDS011;9295;44.484;11.240;2022-11-12T05:04:21;48.00;;;24.87;;
18338;SDS011;9295;44.484;11.240;2022-11-12T05:07:11;43.60;;;23.53;;
18338;SDS011;9295;44.484;11.240;2022-11-12T05:09:59;45.00;;;24.37;;
18338;SDS011;9295;44.484;11.240;2022-11-12T05:12:48;44.27;;;24.10;;
18338;SDS011;9295;44.484;11.240;2022-11-12T05:15:34;43.03;;;24.23;;
18338;SDS011;9295;44.484;11.240;2022-11-12T05:18:21;43.50;;;23.30;;
18338;SDS011;9295;44.484;11.240;2022-11-12T05:21:09;38.67;;;21.73;;
18338;SDS011;9295;44.484;11.240;2022-11-12T05:24:09;43.57;;;22.47;;
18338;SDS011;9295;44.484;11.240;2022-11-12T05:27:17;39.60;;;20.80;;
18338;SDS011;9295;44.484;11.240;2022-11-12T05:30:07;43.10;;;23.60;;
18338;SDS011;9295;44.484;11.240;2022-11-12T05:32:55;39.70;;;22.90;;
18338;SDS011;9295;44.484;11.240;2022-11-12T05:35:42;41.20;;;21.90;;
18338;SDS011;9295;44.484;11.240;2022-11-12T05:38:29;39.57;;;21.17;;
18338;SDS011;9295;44.484;11.240;2022-11-12T05:41:16;41.80;;;21.67;;
18338;SDS011;9295;44.484;11.240;2022-11-12T05:44:04;42.87;;;22.43;;
18338;SDS011;9295;44.484;11.240;2022-11-12T05:46:53;40.97;;;21.50;;
18338;SDS011;9295;44.484;11.240;2022-11-12T05:49:40;38.07;;;21.00;;
18338;SDS011;9295;44.484;11.240;2022-11-12T05:52:27;37.50;;;20.60;;
18338;SDS011;9295;44.484;11.240;2022-11-12T05:55:14;42.27;;;21.80;;
18338;SDS011;9295;44.484;11.240;2022-11-12T05:58:03;37.13;;;20.20;;
18338;SDS011;9295;44.484;11.240;2022-11-12T06:00:50;35.03;;;20.30;;
18338;SDS011;9295;44.484;11.240;2022-11-12T06:03:38;39.40;;;20.23;;
18338;SDS011;9295;44.484;11.240;2022-11-12T06:06:25;38.37;;;20.83;;
18338;SDS011;9295;44.484;11.240;2022-11-12T06:09:12;36.47;;;19.70;;
18338;SDS011;9295;44.484;11.240;2022-11-12T06:11:59;37.30;;;20.70;;
18338;SDS011;9295;44.484;11.240;2022-11-12T06:14:50;33.07;;;19.60;;
18338;SDS011;9295;44.484;11.240;2022-11-12T06:17:37;37.50;;;19.20;;
18338;SDS011;9295;44.484;11.240;2022-11-12T06:20:25;34.70;;;19.70;;
18338;SDS011;9295;44.484;11.240;2022-11-12T06:23:12;40.87;;;20.87;;
18338;SDS011;9295;44.484;11.240;2022-11-12T06:25:59;32.60;;;18.47;;
18338;SDS011;9295;44.484;11.240;2022-11-12T06:28:47;31.03;;;17.90;;
18338;SDS011;9295;44.484;11.240;2022-11-12T06:31:34;31.23;;;18.93;;
18338;SDS011;9295;44.484;11.240;2022-11-12T06:34:21;31.67;;;18.43;;
18338;SDS011;9295;44.484;11.240;2022-11-12T06:37:10;31.67;;;18.53;;
18338;SDS011;9295;44.484;11.240;2022-11-12T06:39:56;32.93;;;18.60;;
18338;SDS011;9295;44.484;11.240;2022-11-12T06:42:44;32.07;;;17.83;;
18338;SDS011;9295;44.484;11.240;2022-11-12T06:45:30;32.27;;;17.70;;
18338;SDS011;9295;44.484;11.240;2022-11-12T06:48:17;28.80;;;16.97;;
18338;SDS011;9295;44.484;11.240;2022-11-12T06:51:08;26.87;;;16.57;;
18338;SDS011;9295;44.484;11.240;2022-11-12T06:53:58;31.27;;;18.20;;
18338;SDS011;9295;44.484;11.240;2022-11-12T06:56:45;30.27;;;17.57;;
18338;SDS011;9295;44.484;11.240;2022-11-12T06:59:32;29.60;;;15.80;;
18338;SDS011;9295;44.484;11.240;2022-11-12T07:02:19;31.73;;;18.00;;
18338;SDS011;9295;44.484;11.240;2022-11-12T07:05:06;26.87;;;16.13;;
18338;SDS011;9295;44.484;11.240;2022-11-12T07:07:53;28.47;;;15.60;;
18338;SDS011;9295;44.484;11.240;2022-11-12T07:10:42;27.00;;;15.67;;
18338;SDS011;9295;44.484;11.240;2022-11-12T07:13:29;22.57;;;14.80;;
18338;SDS011;9295;44.484;11.240;2022-11-12T07:16:16;26.67;;;15.83;;
18338;SDS011;9295;44.484;11.240;2022-11-12T07:19:03;28.03;;;15.50;;
18338;SDS011;9295;44.484;11.240;2022-11-12T07:21:50;27.10;;;15.20;;
18338;SDS011;9295;44.484;11.240;2022-11-12T07:24:37;25.70;;;15.73;;
18338;SDS011;9295;44.484;11.240;2022-11-12T07:27:25;25.90;;;15.30;;
18338;SDS011;9295;44.484;11.240;2022-11-12T07:30:15;25.60;;;15.20;;
18338;SDS011;9295;44.484;11.240;2022-11-12T07:33:02;24.83;;;15.53;;
18338;SDS011;9295;44.484;11.240;2022-11-12T07:35:54;26.47;;;15.10;;
18338;SDS011;9295;44.484;11.240;2022-11-12T07:38:42;25.70;;;15.23;;
18338;SDS011;9295;44.484;11.240;2022-11-12T07:41:30;25.43;;;15.90;;
18338;SDS011;9295;44.484;11.240;2022-11-12T07:44:18;25.10;;;14.47;;
18338;SDS011;9295;44.484;11.240;2022-11-12T07:47:05;28.50;;;14.97;;
18338;SDS011;9295;44.484;11.240;2022-11-12T07:49:52;22.33;;;13.80;;
18338;SDS011;9295;44.484;11.240;2022-11-12T07:52:39;19.33;;;13.30;;
18338;SDS011;9295;44.484;11.240;2022-11-12T07:55:26;31.23;;;14.43;;
18338;SDS011;9295;44.484;11.240;2022-11-12T07:58:13;20.57;;;12.60;;
18338;SDS011;9295;44.484;11.240;2022-11-12T08:01:07;21.50;;;13.03;;
18338;SDS011;9295;44.484;11.240;2022-11-12T08:03:54;18.70;;;12.30;;
18338;SDS011;9295;44.484;11.240;2022-11-12T08:06:41;18.63;;;11.77;;
18338;SDS011;9295;44.484;11.240;2022-11-12T08:09:28;18.87;;;12.07;;
18338;SDS011;9295;44.484;11.240;2022-11-12T08:12:15;16.23;;;11.17;;
18338;SDS011;9295;44.484;11.240;2022-11-12T08:15:02;20.03;;;10.50;;
18338;SDS011;9295;44.484;11.240;2022-11-12T08:17:51;23.90;;;12.17;;
18338;SDS011;9295;44.484;11.240;2022-11-12T08:20:38;23.73;;;11.80;;
18338;SDS011;9295;44.484;11.240;2022-11-12T08:23:25;17.93;;;11.27;;
18338;SDS011;9295;44.484;11.240;2022-11-12T08:26:12;17.63;;;11.10;;
18338;SDS011;9295;44.484;11.240;2022-11-12T08:29:01;15.73;;;10.03;;
18338;SDS011;9295;44.484;11.240;2022-11-12T08:31:53;14.73;;;9.53;;
18338;SDS011;9295;44.484;11.240;2022-11-12T08:34:41;23.00;;;9.60;;
18338;SDS011;9295;44.484;11.240;2022-11-12T08:37:28;16.60;;;9.07;;
18338;SDS011;9295;44.484;11.240;2022-11-12T08:40:15;13.00;;;8.80;;
18338;SDS011;9295;44.484;11.240;2022-11-12T08:43:02;15.47;;;8.87;;
18338;SDS011;9295;44.484;11.240;2022-11-12T08:45:51;15.17;;;9.23;;
18338;SDS011;9295;44.484;11.240;2022-11-12T08:48:38;12.43;;;8.33;;
18338;SDS011;9295;44.484;11.240;2022-11-12T08:51:26;13.90;;;8.47;;
18338;SDS011;9295;44.484;11.240;2022-11-12T08:54:13;14.70;;;8.70;;
18338;SDS011;9295;44.484;11.240;2022-11-12T08:57:00;23.70;;;8.80;;
18338;SDS011;9295;44.484;11.240;2022-11-12T08:59:47;12.00;;;7.93;;
18338;SDS011;9295;44.484;11.240;2022-11-12T09:02:34;15.37;;;7.97;;
18338;SDS011;9295;44.484;11.240;2022-11-12T09:05:21;9.83;;;7.30;;
18338;SDS011;9295;44.484;11.240;2022-11-12T09:08:10;11.00;;;7.53;;
18338;SDS011;9295;44.484;11.240;2022-11-12T09:10:58;11.27;;;7.40;;
18338;SDS011;9295;44.484;11.240;2022-11-12T09:13:45;12.70;;;6.80;;
18338;SDS011;9295;44.484;11.240;2022-11-12T09:16:32;10.37;;;7.47;;
18338;SDS011;9295;44.484;11.240;2022-11-12T09:19:19;12.13;;;7.10;;
18338;SDS011;9295;44.484;11.240;2022-11-12T09:22:06;16.83;;;7.47;;
18338;SDS011;9295;44.484;11.240;2022-11-12T09:24:55;16.27;;;7.10;;
18338;SDS011;9295;44.484;11.240;2022-11-12T09:27:41;13.93;;;7.40;;
18338;SDS011;9295;44.484;11.240;2022-11-12T09:30:32;10.33;;;7.63;;
18338;SDS011;9295;44.484;11.240;2022-11-12T09:33:20;11.60;;;7.17;;
18338;SDS011;9295;44.484;11.240;2022-11-12T09:36:09;12.40;;;7.37;;
18338;SDS011;9295;44.484;11.240;2022-11-12T09:38:56;12.37;;;7.90;;
18338;SDS011;9295;44.484;11.240;2022-11-12T09:41:45;9.20;;;7.00;;
18338;SDS011;9295;44.484;11.240;2022-11-12T09:44:32;9.57;;;6.97;;
18338;SDS011;9295;44.484;11.240;2022-11-12T09:47:23;9.50;;;6.23;;
18338;SDS011;9295;44.484;11.240;2022-11-12T09:50:15;9.40;;;7.03;;
18338;SDS011;9295;44.484;11.240;2022-11-12T09:53:07;11.63;;;6.90;;
18338;SDS011;9295;44.484;11.240;2022-11-12T09:55:59;9.10;;;6.47;;
18338;SDS011;9295;44.484;11.240;2022-11-12T09:58:52;10.83;;;7.13;;
18338;SDS011;9295;44.484;11.240;2022-11-12T10:01:42;10.43;;;6.40;;
18338;SDS011;9295;44.484;11.240;2022-11-12T10:04:56;8.47;;;6.23;;
18338;SDS011;9295;44.484;11.240;2022-11-12T10:07:55;8.20;;;6.10;;
18338;SDS011;9295;44.484;11.240;2022-11-12T10:10:56;8.97;;;6.70;;
18338;SDS011;9295;44.484;11.240;2022-11-12T10:13:59;7.70;;;5.83;;
18338;SDS011;9295;44.484;11.240;2022-11-12T10:16:54;7.83;;;5.60;;
18338;SDS011;9295;44.484;11.240;2022-11-12T10:19:52;12.50;;;6.13;;
18338;SDS011;9295;44.484;11.240;2022-11-12T10:23:02;8.40;;;6.10;;
18338;SDS011;9295;44.484;11.240;2022-11-12T10:25:58;11.40;;;7.03;;
18338;SDS011;9295;44.484;11.240;2022-11-12T10:28:55;12.23;;;6.57;;
18338;SDS011;9295;44.484;11.240;2022-11-12T10:31:48;9.90;;;7.00;;
18338;SDS011;9295;44.484;11.240;2022-11-12T10:34:35;10.70;;;7.23;;
18338;SDS011;9295;44.484;11.240;2022-11-12T10:37:22;12.27;;;7.60;;
18338;SDS011;9295;44.484;11.240;2022-11-12T10:43:22;12.97;;;7.97;;
18338;SDS011;9295;44.484;11.240;2022-11-12T10:46:17;10.83;;;7.20;;
18338;SDS011;9295;44.484;11.240;2022-11-12T10:49:06;15.60;;;8.77;;
18338;SDS011;9295;44.484;11.240;2022-11-12T10:52:18;15.10;;;9.00;;
18338;SDS011;9295;44.484;11.240;2022-11-12T10:55:13;16.83;;;9.40;;
18338;SDS011;9295;44.484;11.240;2022-11-12T10:58:02;15.70;;;8.00;;
18338;SDS011;9295;44.484;11.240;2022-11-12T11:01:11;17.17;;;8.83;;
18338;SDS011;9295;44.484;11.240;2022-11-12T11:04:01;14.23;;;8.50;;
18338;SDS011;9295;44.484;11.240;2022-11-12T11:06:56;15.17;;;9.47;;
18338;SDS011;9295;44.484;11.240;2022-11-12T11:09:51;14.90;;;8.60;;
18338;SDS011;9295;44.484;11.240;2022-11-12T11:12:40;16.53;;;10.37;;
18338;SDS011;9295;44.484;11.240;2022-11-12T11:15:27;16.97;;;10.07;;
18338;SDS011;9295;44.484;11.240;2022-11-12T11:18:15;19.00;;;10.50;;
18338;SDS011;9295;44.484;11.240;2022-11-12T11:21:05;16.63;;;10.50;;
18338;SDS011;9295;44.484;11.240;2022-11-12T11:24:03;16.97;;;9.93;;
18338;SDS011;9295;44.484;11.240;2022-11-12T11:27:01;15.97;;;10.07;;
18338;SDS011;9295;44.484;11.240;2022-11-12T11:29:56;14.40;;;10.67;;
18338;SDS011;9295;44.484;11.240;2022-11-12T11:33:02;24.30;;;11.47;;
18338;SDS011;9295;44.484;11.240;2022-11-12T11:36:08;16.23;;;11.30;;
18338;SDS011;9295;44.484;11.240;2022-11-12T11:39:05;17.27;;;12.17;;
18338;SDS011;9295;44.484;11.240;2022-11-12T11:42:06;16.50;;;11.57;;
18338;SDS011;9295;44.484;11.240;2022-11-12T11:45:05;19.17;;;12.30;;
18338;SDS011;9295;44.484;11.240;2022-11-12T11:48:01;18.00;;;12.70;;
18338;SDS011;9295;44.484;11.240;2022-11-12T11:51:01;18.50;;;11.60;;
18338;SDS011;9295;44.484;11.240;2022-11-12T11:53:56;20.00;;;13.27;;
18338;SDS011;9295;44.484;11.240;2022-11-12T11:56:52;24.17;;;12.10;;
18338;SDS011;9295;44.484;11.240;2022-11-12T11:59:46;19.40;;;12.77;;
18338;SDS011;9295;44.484;11.240;2022-11-12T12:06:14;21.73;;;11.00;;
18338;SDS011;9295;44.484;11.240;2022-11-12T12:09:12;22.67;;;15.10;;
18338;SDS011;9295;44.484;11.240;2022-11-12T12:12:14;28.60;;;16.97;;
18338;SDS011;9295;44.484;11.240;2022-11-12T12:15:18;25.90;;;17.93;;
18338;SDS011;9295;44.484;11.240;2022-11-12T12:18:37;31.80;;;22.10;;
18338;SDS011;9295;44.484;11.240;2022-11-12T12:21:32;29.07;;;18.97;;
18338;SDS011;9295;44.484;11.240;2022-11-12T12:24:24;28.93;;;21.00;;
18338;SDS011;9295;44.484;11.240;2022-11-12T12:27:17;29.53;;;19.57;;
18338;SDS011;9295;44.484;11.240;2022-11-12T12:30:13;26.47;;;19.30;;
18338;SDS011;9295;44.484;11.240;2022-11-12T12:33:06;27.87;;;19.90;;
18338;SDS011;9295;44.484;11.240;2022-11-12T12:36:04;29.90;;;20.17;;
18338;SDS011;9295;44.484;11.240;2022-11-12T12:39:06;30.47;;;19.50;;
18338;SDS011;9295;44.484;11.240;2022-11-12T12:42:00;28.30;;;20.07;;
18338;SDS011;9295;44.484;11.240;2022-11-12T12:44:51;29.90;;;18.70;;
18338;SDS011;9295;44.484;11.240;2022-11-12T12:47:46;26.53;;;18.80;;
18338;SDS011;9295;44.484;11.240;2022-11-12T12:50:35;29.93;;;19.50;;
18338;SDS011;9295;44.484;11.240;2022-11-12T12:53:31;30.30;;;20.23;;
18338;SDS011;9295;44.484;11.240;2022-11-12T12:59:31;31.60;;;18.57;;
18338;SDS011;9295;44.484;11.240;2022-11-12T13:02:18;29.27;;;18.20;;
18338;SDS011;9295;44.484;11.240;2022-11-12T13:05:20;26.23;;;17.97;;
18338;SDS011;9295;44.484;11.240;2022-11-12T13:08:18;29.10;;;15.53;;
18338;SDS011;9295;44.484;11.240;2022-11-12T13:11:13;25.07;;;17.97;;
18338;SDS011;9295;44.484;11.240;2022-11-12T13:21:46;25.87;;;17.10;;
18338;SDS011;9295;44.484;11.240;2022-11-12T13:25:25;27.83;;;18.93;;
18338;SDS011;9295;44.484;11.240;2022-11-12T13:28:13;27.37;;;19.60;;
18338;SDS011;9295;44.484;11.240;2022-11-12T13:31:01;30.10;;;19.03;;
18338;SDS011;9295;44.484;11.240;2022-11-12T13:33:49;29.77;;;18.70;;
18338;SDS011;9295;44.484;11.240;2022-11-12T13:36:36;27.40;;;18.47;;
18338;SDS011;9295;44.484;11.240;2022-11-12T13:39:23;30.47;;;20.20;;
18338;SDS011;9295;44.484;11.240;2022-11-12T13:42:12;27.00;;;18.60;;
18338;SDS011;9295;44.484;11.240;2022-11-12T13:45:20;31.40;;;21.40;;
18338;SDS011;9295;44.484;11.240;2022-11-12T13:48:11;29.67;;;19.53;;
18338;SDS011;9295;44.484;11.240;2022-11-12T13:51:01;27.60;;;19.73;;
18338;SDS011;9295;44.484;11.240;2022-11-12T13:53:51;30.37;;;20.27;;
18338;SDS011;9295;44.484;11.240;2022-11-12T13:56:38;29.80;;;20.60;;
18338;SDS011;9295;44.484;11.240;2022-11-12T13:59:26;30.90;;;20.63;;
18338;SDS011;9295;44.484;11.240;2022-11-12T14:02:17;32.80;;;20.83;;
18338;SDS011;9295;44.484;11.240;2022-11-12T14:05:14;32.93;;;22.13;;
18338;SDS011;9295;44.484;11.240;2022-11-12T14:08:12;26.70;;;19.97;;
18338;SDS011;9295;44.484;11.240;2022-11-12T14:14:36;31.40;;;21.83;;
18338;SDS011;9295;44.484;11.240;2022-11-12T14:17:37;40.40;;;22.63;;
18338;SDS011;9295;44.484;11.240;2022-11-12T14:20:31;32.03;;;21.63;;
18338;SDS011;9295;44.484;11.240;2022-11-12T14:23:21;36.87;;;23.00;;
18338;SDS011;9295;44.484;11.240;2022-11-12T14:26:10;36.57;;;23.13;;
18338;SDS011;9295;44.484;11.240;2022-11-12T14:28:58;35.30;;;23.80;;
18338;SDS011;9295;44.484;11.240;2022-11-12T14:31:46;32.40;;;22.93;;
18338;SDS011;9295;44.484;11.240;2022-11-12T14:34:44;40.90;;;25.17;;
18338;SDS011;9295;44.484;11.240;2022-11-12T14:37:33;43.30;;;26.00;;
18338;SDS011;9295;44.484;11.240;2022-11-12T14:40:27;50.03;;;28.30;;
18338;SDS011;9295;44.484;11.240;2022-11-12T14:46:23;72.57;;;34.63;;
18338;SDS011;9295;44.484;11.240;2022-11-12T14:49:15;57.97;;;31.30;;
18338;SDS011;9295;44.484;11.240;2022-11-12T14:52:08;52.77;;;29.57;;
18338;SDS011;9295;44.484;11.240;2022-11-12T14:54:57;51.33;;;29.07;;
18338;SDS011;9295;44.484;11.240;2022-11-12T14:57:49;50.70;;;27.03;;
18338;SDS011;9295;44.484;11.240;2022-11-12T15:00:38;52.27;;;31.93;;
18338;SDS011;9295;44.484;11.240;2022-11-12T15:03:30;48.43;;;30.40;;
18338;SDS011;9295;44.484;11.240;2022-11-12T15:06:25;46.43;;;28.57;;
18338;SDS011;9295;44.484;11.240;2022-11-12T15:09:15;42.53;;;27.00;;
18338;SDS011;9295;44.484;11.240;2022-11-12T15:12:06;55.70;;;31.20;;
18338;SDS011;9295;44.484;11.240;2022-11-12T15:15:06;46.37;;;33.20;;
18338;SDS011;9295;44.484;11.240;2022-11-12T15:17:55;52.90;;;35.30;;
18338;SDS011;9295;44.484;11.240;2022-11-12T15:20:44;61.90;;;38.77;;
18338;SDS011;9295;44.484;11.240;2022-11-12T15:23:32;41.40;;;27.53;;
18338;SDS011;9295;44.484;11.240;2022-11-12T15:26:23;46.27;;;27.93;;
18338;SDS011;9295;44.484;11.240;2022-11-12T15:29:23;39.70;;;27.57;;
18338;SDS011;9295;44.484;11.240;2022-11-12T15:32:30;48.43;;;30.97;;
18338;SDS011;9295;44.484;11.240;2022-11-12T15:35:19;43.13;;;26.93;;
18338;SDS011;9295;44.484;11.240;2022-11-12T15:38:16;42.43;;;26.57;;
18338;SDS011;9295;44.484;11.240;2022-11-12T15:41:18;42.93;;;27.57;;
18338;SDS011;9295;44.484;11.240;2022-11-12T15:44:09;111.97;;;76.77;;
18338;SDS011;9295;44.484;11.240;2022-11-12T15:46:57;82.23;;;54.37;;
18338;SDS011;9295;44.484;11.240;2022-11-12T15:49:45;49.10;;;35.87;;
18338;SDS011;9295;44.484;11.240;2022-11-12T15:52:35;62.93;;;44.20;;
18338;SDS011;9295;44.484;11.240;2022-11-12T15:55:22;41.87;;;27.03;;
18338;SDS011;9295;44.484;11.240;2022-11-12T15:58:12;35.67;;;24.80;;
18338;SDS011;9295;44.484;11.240;2022-11-12T16:01:02;28.30;;;20.07;;
18338;SDS011;9295;44.484;11.240;2022-11-12T16:03:50;36.13;;;20.97;;
18338;SDS011;9295;44.484;11.240;2022-11-12T16:06:37;33.50;;;19.97;;
18338;SDS011;9295;44.484;11.240;2022-11-12T16:09:24;30.03;;;17.93;;
18338;SDS011;9295;44.484;11.240;2022-11-12T16:12:11;32.50;;;19.70;;
18338;SDS011;9295;44.484;11.240;2022-11-12T16:15:01;29.90;;;19.90;;
18338;SDS011;9295;44.484;11.240;2022-11-12T16:17:48;31.40;;;18.50;;
18338;SDS011;9295;44.484;11.240;2022-11-12T16:20:35;32.07;;;21.50;;
18338;SDS011;9295;44.484;11.240;2022-11-12T16:23:23;32.50;;;19.77;;
18338;SDS011;9295;44.484;11.240;2022-11-12T16:26:10;30.60;;;20.03;;
18338;SDS011;9295;44.484;11.240;2022-11-12T16:29:01;29.33;;;18.67;;
18338;SDS011;9295;44.484;11.240;2022-11-12T16:31:49;34.10;;;21.53;;
18338;SDS011;9295;44.484;11.240;2022-11-12T16:34:36;33.00;;;21.47;;
18338;SDS011;9295;44.484;11.240;2022-11-12T16:37:23;29.73;;;19.70;;
18338;SDS011;9295;44.484;11.240;2022-11-12T16:40:11;33.20;;;20.33;;
18338;SDS011;9295;44.484;11.240;2022-11-12T16:42:59;29.27;;;18.80;;
18338;SDS011;9295;44.484;11.240;2022-11-12T16:45:47;31.17;;;18.27;;
18338;SDS011;9295;44.484;11.240;2022-11-12T16:48:35;32.23;;;19.50;;
18338;SDS011;9295;44.484;11.240;2022-11-12T16:51:22;33.07;;;20.83;;
18338;SDS011;9295;44.484;11.240;2022-11-12T16:54:09;35.50;;;21.00;;
18338;SDS011;9295;44.484;11.240;2022-11-12T16:56:56;33.80;;;21.77;;
18338;SDS011;9295;44.484;11.240;2022-11-12T16:59:42;29.53;;;19.63;;
18338;SDS011;9295;44.484;11.240;2022-11-12T17:02:30;29.80;;;19.17;;